sensor_id;sensor_type;location;lat;lon;timestamp;pressure;altitude;pressure_sealevel;temperature;humidity
14383;BME280;7275;50.328;8.720;2022-08-19T00:01:24;99301.94;;;28.15;39.20
14383;BME280;7275;50.328;8.720;2022-08-19T00:03:57;99291.06;;;28.15;39.77
14383;BME280;7275;50.328;8.720;2022-08-19T00:06:25;99302.94;;;28.14;39.33
14383;BME280;7275;50.328;8.720;2022-08-19T00:08:52;99291.25;;;28.14;39.44
14383;BME280;7275;50.328;8.720;2022-08-19T00:11:20;99288.53;;;28.14;39.73
14383;BME280;7275;50.328;8.720;2022-08-19T00:13:51;99284.94;;;28.13;39.39
14383;BME280;7275;50.328;8.720;2022-08-19T00:16:24;99296.84;;;28.12;39.72
14383;BME280;7275;50.328;8.720;2022-08-19T00:18:53;99294.50;;;28.09;39.89
14383;BME280;7275;50.328;8.720;2022-08-19T00:21:21;99289.91;;;28.10;39.64
14383;BME280;7275;50.328;8.720;2022-08-19T00:23:49;99295.16;;;28.11;39.89
14383;BME280;7275;50.328;8.720;2022-08-19T00:26:17;99282.22;;;28.13;39.47
14383;BME280;7275;50.328;8.720;2022-08-19T00:28:44;99274.25;;;28.12;39.95
14383;BME280;7275;50.328;8.720;2022-08-19T00:31:13;99278.84;;;28.11;39.65
14383;BME280;7275;50.328;8.720;2022-08-19T00:33:43;99281.56;;;28.11;40.02
14383;BME280;7275;50.328;8.720;2022-08-19T00:36:11;99275.66;;;28.08;39.91
14383;BME280;7275;50.328;8.720;2022-08-19T00:38:39;99266.81;;;28.06;39.95
14383;BME280;7275;50.328;8.720;2022-08-19T00:41:09;99263.25;;;28.05;39.54
14383;BME280;7275;50.328;8.720;2022-08-19T00:43:37;99268.03;;;28.03;39.88
14383;BME280;7275;50.328;8.720;2022-08-19T00:46:06;99266.81;;;28.06;39.69
14383;BME280;7275;50.328;8.720;2022-08-19T00:48:34;99256.13;;;28.04;39.74
14383;BME280;7275;50.328;8.720;2022-08-19T00:51:04;99254.25;;;28.05;39.79
14383;BME280;7275;50.328;8.720;2022-08-19T00:53:32;99253.56;;;28.03;39.82
14383;BME280;7275;50.328;8.720;2022-08-19T00:56:02;99252.53;;;28.04;39.78
14383;BME280;7275;50.328;8.720;2022-08-19T00:58:33;99259.69;;;28.05;40.22
14383;BME280;7275;50.328;8.720;2022-08-19T01:01:01;99258.81;;;28.04;39.96
14383;BME280;7275;50.328;8.720;2022-08-19T01:03:29;99250.88;;;28.03;40.17
14383;BME280;7275;50.328;8.720;2022-08-19T01:06:18;99244.75;;;28.01;40.27
14383;BME280;7275;50.328;8.720;2022-08-19T01:08:46;99246.44;;;28.02;40.00
14383;BME280;7275;50.328;8.720;2022-08-19T01:11:15;99246.44;;;28.02;40.14
14383;BME280;7275;50.328;8.720;2022-08-19T01:13:44;99240.34;;;28.00;40.02
14383;BME280;7275;50.328;8.720;2022-08-19T01:16:17;99243.25;;;27.98;40.02
14383;BME280;7275;50.328;8.720;2022-08-19T01:18:47;99236.94;;;27.98;40.15
14383;BME280;7275;50.328;8.720;2022-08-19T01:21:21;99235.28;;;27.97;40.11
14383;BME280;7275;50.328;8.720;2022-08-19T01:23:51;99232.72;;;27.95;40.08
14383;BME280;7275;50.328;8.720;2022-08-19T01:26:22;99238.16;;;27.95;40.30
14383;BME280;7275;50.328;8.720;2022-08-19T01:28:53;99243.72;;;27.94;40.50
14383;BME280;7275;50.328;8.720;2022-08-19T01:31:28;99234.09;;;27.91;40.48
14383;BME280;7275;50.328;8.720;2022-08-19T01:33:58;99230.53;;;27.91;40.35
14383;BME280;7275;50.328;8.720;2022-08-19T01:36:29;99224.41;;;27.89;40.58
14383;BME280;7275;50.328;8.720;2022-08-19T01:39:00;99219.31;;;27.86;40.62
14383;BME280;7275;50.328;8.720;2022-08-19T01:41:28;99215.28;;;27.82;40.84
14383;BME280;7275;50.328;8.720;2022-08-19T01:43:56;99223.63;;;27.80;40.72
14383;BME280;7275;50.328;8.720;2022-08-19T01:46:44;99222.09;;;27.78;40.49
14383;BME280;7275;50.328;8.720;2022-08-19T01:49:13;99225.81;;;27.77;40.59
14383;BME280;7275;50.328;8.720;2022-08-19T01:51:41;99217.00;;;27.75;40.84
14383;BME280;7275;50.328;8.720;2022-08-19T01:54:13;99223.97;;;27.77;40.88
14383;BME280;7275;50.328;8.720;2022-08-19T01:56:55;99220.56;;;27.75;40.86
14383;BME280;7275;50.328;8.720;2022-08-19T01:59:24;99234.16;;;27.75;41.06
14383;BME280;7275;50.328;8.720;2022-08-19T02:01:52;99232.28;;;27.76;41.11
14383;BME280;7275;50.328;8.720;2022-08-19T02:04:19;99232.28;;;27.76;41.31
14383;BME280;7275;50.328;8.720;2022-08-19T02:06:47;99224.47;;;27.73;41.44
14383;BME280;7275;50.328;8.720;2022-08-19T02:09:16;99226.53;;;27.70;41.32
14383;BME280;7275;50.328;8.720;2022-08-19T02:11:44;99226.91;;;27.67;41.55
14383;BME280;7275;50.328;8.720;2022-08-19T02:14:11;99226.91;;;27.67;41.60
14383;BME280;7275;50.328;8.720;2022-08-19T02:16:39;99219.75;;;27.66;41.67
14383;BME280;7275;50.328;8.720;2022-08-19T02:19:07;99230.34;;;27.61;41.30
14383;BME280;7275;50.328;8.720;2022-08-19T02:21:34;99228.63;;;27.60;41.53
14383;BME280;7275;50.328;8.720;2022-08-19T02:24:03;99222.72;;;27.57;41.33
14383;BME280;7275;50.328;8.720;2022-08-19T02:26:33;99223.03;;;27.54;41.77
14383;BME280;7275;50.328;8.720;2022-08-19T02:29:00;99238.66;;;27.52;41.39
14383;BME280;7275;50.328;8.720;2022-08-19T02:31:28;99231.75;;;27.49;41.73
14383;BME280;7275;50.328;8.720;2022-08-19T02:33:56;99255.50;;;27.47;41.85
14383;BME280;7275;50.328;8.720;2022-08-19T02:36:24;99260.91;;;27.47;41.70
14383;BME280;7275;50.328;8.720;2022-08-19T02:38:53;99261.09;;;27.46;41.75
14383;BME280;7275;50.328;8.720;2022-08-19T02:41:23;99259.56;;;27.43;42.17
14383;BME280;7275;50.328;8.720;2022-08-19T02:43:53;99255.19;;;27.42;41.93
14383;BME280;7275;50.328;8.720;2022-08-19T02:46:41;99271.81;;;27.39;42.05
14383;BME280;7275;50.328;8.720;2022-08-19T02:49:11;99259.28;;;27.38;42.01
14383;BME280;7275;50.328;8.720;2022-08-19T02:51:41;99267.41;;;27.38;41.96
14383;BME280;7275;50.328;8.720;2022-08-19T02:54:11;99261.50;;;27.35;42.40
14383;BME280;7275;50.328;8.720;2022-08-19T02:56:40;99258.03;;;27.33;42.00
14383;BME280;7275;50.328;8.720;2022-08-19T02:59:10;99259.28;;;27.30;42.36
14383;BME280;7275;50.328;8.720;2022-08-19T03:01:40;99255.03;;;27.28;42.50
14383;BME280;7275;50.328;8.720;2022-08-19T03:04:10;99252.50;;;27.26;42.61
14383;BME280;7275;50.328;8.720;2022-08-19T03:06:39;99256.22;;;27.25;42.67
14383;BME280;7275;50.328;8.720;2022-08-19T03:09:07;99263.00;;;27.21;42.50
14383;BME280;7275;50.328;8.720;2022-08-19T03:11:35;99266.91;;;27.19;42.31
14383;BME280;7275;50.328;8.720;2022-08-19T03:14:04;99266.25;;;27.17;42.63
14383;BME280;7275;50.328;8.720;2022-08-19T03:16:36;99259.13;;;27.16;42.69
14383;BME280;7275;50.328;8.720;2022-08-19T03:19:07;99263.03;;;27.13;42.73
14383;BME280;7275;50.328;8.720;2022-08-19T03:21:34;99257.59;;;27.13;42.52
14383;BME280;7275;50.328;8.720;2022-08-19T03:24:05;99258.59;;;27.12;43.03
14383;BME280;7275;50.328;8.720;2022-08-19T03:26:34;99254.22;;;27.11;42.99
14383;BME280;7275;50.328;8.720;2022-08-19T03:29:03;99256.94;;;27.11;43.00
14383;BME280;7275;50.328;8.720;2022-08-19T03:31:31;99256.94;;;27.11;43.20
14383;BME280;7275;50.328;8.720;2022-08-19T03:34:20;99262.53;;;27.10;43.02
14383;BME280;7275;50.328;8.720;2022-08-19T03:36:48;99258.13;;;27.09;42.90
14383;BME280;7275;50.328;8.720;2022-08-19T03:39:16;99272.38;;;27.11;43.06
14383;BME280;7275;50.328;8.720;2022-08-19T03:41:45;99275.06;;;27.11;43.00
14383;BME280;7275;50.328;8.720;2022-08-19T03:44:16;99274.22;;;27.10;43.05
14383;BME280;7275;50.328;8.720;2022-08-19T03:46:48;99289.50;;;27.11;43.20
14383;BME280;7275;50.328;8.720;2022-08-19T03:49:16;99277.78;;;27.11;43.30
14383;BME280;7275;50.328;8.720;2022-08-19T03:51:47;99274.22;;;27.10;42.98
14383;BME280;7275;50.328;8.720;2022-08-19T03:54:17;99286.97;;;27.10;43.31
14383;BME280;7275;50.328;8.720;2022-08-19T03:56:48;99285.06;;;27.10;43.37
14383;BME280;7275;50.328;8.720;2022-08-19T03:59:17;99284.41;;;27.08;43.12
14383;BME280;7275;50.328;8.720;2022-08-19T04:01:46;99284.41;;;27.08;43.25
14383;BME280;7275;50.328;8.720;2022-08-19T04:04:13;99288.16;;;27.07;43.16
14383;BME280;7275;50.328;8.720;2022-08-19T04:06:41;99275.59;;;27.06;43.22
14383;BME280;7275;50.328;8.720;2022-08-19T04:09:11;99282.91;;;27.06;43.46
14383;BME280;7275;50.328;8.720;2022-08-19T04:11:40;99277.47;;;27.06;43.39
14383;BME280;7275;50.328;8.720;2022-08-19T04:14:12;99281.88;;;27.07;43.38
14383;BME280;7275;50.328;8.720;2022-08-19T04:16:41;99281.19;;;27.05;43.56
14383;BME280;7275;50.328;8.720;2022-08-19T04:19:10;99287.63;;;27.04;43.53
14383;BME280;7275;50.328;8.720;2022-08-19T04:21:38;99289.53;;;27.03;43.37
14383;BME280;7275;50.328;8.720;2022-08-19T04:24:06;99283.22;;;27.03;43.65
14383;BME280;7275;50.328;8.720;2022-08-19T04:26:36;99288.66;;;27.03;43.64
14383;BME280;7275;50.328;8.720;2022-08-19T04:29:09;99284.25;;;27.02;43.28
14383;BME280;7275;50.328;8.720;2022-08-19T04:31:39;99279.66;;;27.02;43.45
14383;BME280;7275;50.328;8.720;2022-08-19T04:34:09;99276.94;;;27.02;43.42
14383;BME280;7275;50.328;8.720;2022-08-19T04:36:39;99282.19;;;27.04;43.43
14383;BME280;7275;50.328;8.720;2022-08-19T04:39:10;99282.06;;;27.05;43.43
14383;BME280;7275;50.328;8.720;2022-08-19T04:41:39;99283.59;;;27.08;43.36
14383;BME280;7275;50.328;8.720;2022-08-19T04:44:24;99286.44;;;27.06;43.70
14383;BME280;7275;50.328;8.720;2022-08-19T04:46:52;99291.53;;;27.09;43.66
14383;BME280;7275;50.328;8.720;2022-08-19T04:49:21;99289.84;;;27.08;43.75
14383;BME280;7275;50.328;8.720;2022-08-19T04:51:51;99302.41;;;27.09;43.84
14383;BME280;7275;50.328;8.720;2022-08-19T04:54:22;99296.78;;;27.11;43.58
14383;BME280;7275;50.328;8.720;2022-08-19T04:57:07;99299.31;;;27.12;43.57
14383;BME280;7275;50.328;8.720;2022-08-19T04:59:36;99292.88;;;27.13;43.72
14383;BME280;7275;50.328;8.720;2022-08-19T05:02:06;99295.25;;;27.16;43.58
14383;BME280;7275;50.328;8.720;2022-08-19T05:04:35;99294.25;;;27.17;43.48
14383;BME280;7275;50.328;8.720;2022-08-19T05:07:06;99300.34;;;27.19;43.99
14383;BME280;7275;50.328;8.720;2022-08-19T05:09:34;99303.91;;;27.20;43.79
14383;BME280;7275;50.328;8.720;2022-08-19T05:12:23;99298.78;;;27.25;43.48
14383;BME280;7275;50.328;8.720;2022-08-19T05:14:55;99306.78;;;27.26;43.66
14383;BME280;7275;50.328;8.720;2022-08-19T05:17:24;99300.81;;;27.31;43.53
14383;BME280;7275;50.328;8.720;2022-08-19T05:19:55;99304.19;;;27.33;43.81
14383;BME280;7275;50.328;8.720;2022-08-19T05:22:41;99297.63;;;27.35;43.71
14383;BME280;7275;50.328;8.720;2022-08-19T05:25:11;99291.00;;;27.38;43.57
14383;BME280;7275;50.328;8.720;2022-08-19T05:27:41;99298.63;;;27.42;43.35
14383;BME280;7275;50.328;8.720;2022-08-19T05:30:10;99308.78;;;27.48;43.38
14383;BME280;7275;50.328;8.720;2022-08-19T05:32:39;99302.84;;;27.53;43.62
14383;BME280;7275;50.328;8.720;2022-08-19T05:35:07;99310.28;;;27.59;43.55
14383;BME280;7275;50.328;8.720;2022-08-19T05:37:37;99303.69;;;27.61;43.33
14383;BME280;7275;50.328;8.720;2022-08-19T05:40:08;99306.53;;;27.68;43.09
14383;BME280;7275;50.328;8.720;2022-08-19T05:42:36;99307.69;;;27.74;43.00
14383;BME280;7275;50.328;8.720;2022-08-19T05:45:06;99311.56;;;27.79;43.34
14383;BME280;7275;50.328;8.720;2022-08-19T05:47:34;99325.31;;;27.86;43.05
14383;BME280;7275;50.328;8.720;2022-08-19T05:50:08;99328.34;;;27.91;42.73
14383;BME280;7275;50.328;8.720;2022-08-19T05:52:36;99330.56;;;27.95;43.14
14383;BME280;7275;50.328;8.720;2022-08-19T05:55:16;99325.09;;;28.03;42.95
14383;BME280;7275;50.328;8.720;2022-08-19T05:57:46;99336.28;;;28.08;42.58
14383;BME280;7275;50.328;8.720;2022-08-19T06:00:16;99322.16;;;28.13;42.84
14383;BME280;7275;50.328;8.720;2022-08-19T06:02:50;99333.69;;;28.15;42.84
14383;BME280;7275;50.328;8.720;2022-08-19T06:05:18;99327.72;;;28.19;42.41
14383;BME280;7275;50.328;8.720;2022-08-19T06:07:46;99334.31;;;28.25;42.32
14383;BME280;7275;50.328;8.720;2022-08-19T06:10:14;99332.59;;;28.32;42.36
14383;BME280;7275;50.328;8.720;2022-08-19T06:12:41;99323.06;;;28.36;42.69
14383;BME280;7275;50.328;8.720;2022-08-19T06:15:12;99326.25;;;28.39;42.27
14383;BME280;7275;50.328;8.720;2022-08-19T06:17:41;99337.25;;;28.46;42.23
14383;BME280;7275;50.328;8.720;2022-08-19T06:20:12;99338.25;;;28.53;42.23
14383;BME280;7275;50.328;8.720;2022-08-19T06:22:42;99338.56;;;28.58;42.11
14383;BME280;7275;50.328;8.720;2022-08-19T06:25:10;99350.91;;;28.69;41.94
14383;BME280;7275;50.328;8.720;2022-08-19T06:27:38;99350.03;;;28.76;42.22
14383;BME280;7275;50.328;8.720;2022-08-19T06:30:26;99357.47;;;28.82;41.81
14383;BME280;7275;50.328;8.720;2022-08-19T06:32:55;99361.31;;;28.88;41.80
14383;BME280;7275;50.328;8.720;2022-08-19T06:35:23;99366.88;;;28.94;41.99
14383;BME280;7275;50.328;8.720;2022-08-19T06:37:51;99369.19;;;29.05;41.57
14383;BME280;7275;50.328;8.720;2022-08-19T06:40:20;99364.53;;;29.14;41.43
14383;BME280;7275;50.328;8.720;2022-08-19T06:42:47;99361.09;;;29.20;41.82
14383;BME280;7275;50.328;8.720;2022-08-19T06:45:20;99354.72;;;29.28;41.34
14383;BME280;7275;50.328;8.720;2022-08-19T06:47:51;99361.97;;;29.35;41.10
14383;BME280;7275;50.328;8.720;2022-08-19T06:50:23;99361.25;;;29.41;41.30
14383;BME280;7275;50.328;8.720;2022-08-19T06:52:51;99372.22;;;29.48;41.40
14383;BME280;7275;50.328;8.720;2022-08-19T06:55:19;99380.34;;;29.56;41.24
14383;BME280;7275;50.328;8.720;2022-08-19T06:57:46;99381.94;;;29.65;41.07
14383;BME280;7275;50.328;8.720;2022-08-19T07:00:14;99379.16;;;29.73;40.69
14383;BME280;7275;50.328;8.720;2022-08-19T07:02:43;99371.91;;;29.80;40.77
14383;BME280;7275;50.328;8.720;2022-08-19T07:05:24;99376.06;;;29.90;40.85
14383;BME280;7275;50.328;8.720;2022-08-19T07:07:52;99382.06;;;30.00;40.39
14383;BME280;7275;50.328;8.720;2022-08-19T07:10:22;99387.25;;;30.10;40.55
14383;BME280;7275;50.328;8.720;2022-08-19T07:12:51;99390.53;;;30.20;40.06
14383;BME280;7275;50.328;8.720;2022-08-19T07:15:20;99386.84;;;30.28;40.14
14383;BME280;7275;50.328;8.720;2022-08-19T07:17:47;99381.31;;;30.36;39.79
14383;BME280;7275;50.328;8.720;2022-08-19T07:20:18;99381.41;;;30.42;39.38
14383;BME280;7275;50.328;8.720;2022-08-19T07:22:47;99377.91;;;30.48;39.58
14383;BME280;7275;50.328;8.720;2022-08-19T07:25:15;99379.84;;;30.54;39.42
14383;BME280;7275;50.328;8.720;2022-08-19T07:27:44;99379.09;;;30.60;39.42
14383;BME280;7275;50.328;8.720;2022-08-19T07:30:19;99383.41;;;30.69;39.55
14383;BME280;7275;50.328;8.720;2022-08-19T07:32:51;99390.22;;;30.80;39.36
14383;BME280;7275;50.328;8.720;2022-08-19T07:35:19;99388.06;;;30.90;39.08
14383;BME280;7275;50.328;8.720;2022-08-19T07:37:48;99394.50;;;31.04;38.45
14383;BME280;7275;50.328;8.720;2022-08-19T07:40:15;99385.34;;;31.11;38.58
14383;BME280;7275;50.328;8.720;2022-08-19T07:42:43;99386.69;;;31.22;38.39
14383;BME280;7275;50.328;8.720;2022-08-19T07:45:10;99387.41;;;31.30;38.11
14383;BME280;7275;50.328;8.720;2022-08-19T07:47:38;99385.59;;;31.37;38.06
14383;BME280;7275;50.328;8.720;2022-08-19T07:50:17;99388.00;;;31.47;37.90
14383;BME280;7275;50.328;8.720;2022-08-19T07:52:48;99384.91;;;31.57;37.71
14383;BME280;7275;50.328;8.720;2022-08-19T07:55:22;99395.88;;;31.63;37.99
14383;BME280;7275;50.328;8.720;2022-08-19T07:58:09;99399.97;;;31.74;37.51
14383;BME280;7275;50.328;8.720;2022-08-19T08:00:37;99398.13;;;31.81;37.37
14383;BME280;7275;50.328;8.720;2022-08-19T08:03:05;99385.53;;;31.86;37.22
14383;BME280;7275;50.328;8.720;2022-08-19T08:05:34;99388.13;;;31.94;37.33
14383;BME280;7275;50.328;8.720;2022-08-19T08:08:21;99397.88;;;32.03;37.20
14383;BME280;7275;50.328;8.720;2022-08-19T08:11:11;99399.41;;;32.12;37.36
14383;BME280;7275;50.328;8.720;2022-08-19T08:13:41;99406.22;;;32.23;36.97
14383;BME280;7275;50.328;8.720;2022-08-19T08:16:08;99412.75;;;32.28;36.76
14383;BME280;7275;50.328;8.720;2022-08-19T08:18:40;99419.50;;;32.33;36.55
14383;BME280;7275;50.328;8.720;2022-08-19T08:21:16;99410.44;;;32.32;36.36
14383;BME280;7275;50.328;8.720;2022-08-19T08:23:45;99410.03;;;32.28;36.06
14383;BME280;7275;50.328;8.720;2022-08-19T08:26:12;99409.16;;;32.28;36.28
14383;BME280;7275;50.328;8.720;2022-08-19T08:28:41;99411.25;;;32.26;36.21
14383;BME280;7275;50.328;8.720;2022-08-19T08:31:14;99406.88;;;32.31;36.33
14383;BME280;7275;50.328;8.720;2022-08-19T08:33:42;99409.66;;;32.45;36.65
14383;BME280;7275;50.328;8.720;2022-08-19T08:36:10;99414.00;;;32.60;36.44
14383;BME280;7275;50.328;8.720;2022-08-19T08:38:40;99409.00;;;32.77;36.11
14383;BME280;7275;50.328;8.720;2022-08-19T08:41:17;99419.16;;;32.96;36.21
14383;BME280;7275;50.328;8.720;2022-08-19T08:43:49;99416.91;;;33.06;35.63
14383;BME280;7275;50.328;8.720;2022-08-19T08:46:22;99415.63;;;33.09;35.52
14383;BME280;7275;50.328;8.720;2022-08-19T08:49:02;99417.94;;;33.12;35.75
14383;BME280;7275;50.328;8.720;2022-08-19T08:51:34;99416.50;;;33.22;35.37
14383;BME280;7275;50.328;8.720;2022-08-19T08:54:05;99423.25;;;33.26;34.99
14383;BME280;7275;50.328;8.720;2022-08-19T08:56:38;99422.59;;;33.24;34.82
14383;BME280;7275;50.328;8.720;2022-08-19T08:59:10;99427.22;;;33.24;34.79
14383;BME280;7275;50.328;8.720;2022-08-19T09:01:40;99422.19;;;33.27;35.00
14383;BME280;7275;50.328;8.720;2022-08-19T09:04:07;99429.56;;;33.27;34.66
14383;BME280;7275;50.328;8.720;2022-08-19T09:06:40;99426.59;;;33.22;34.73
14383;BME280;7275;50.328;8.720;2022-08-19T09:09:14;99425.34;;;33.18;34.71
14383;BME280;7275;50.328;8.720;2022-08-19T09:11:55;99416.72;;;33.21;34.60
14383;BME280;7275;50.328;8.720;2022-08-19T09:14:34;99408.91;;;33.31;35.02
14383;BME280;7275;50.328;8.720;2022-08-19T09:17:19;99410.00;;;33.49;34.89
14383;BME280;7275;50.328;8.720;2022-08-19T09:19:59;99404.31;;;33.70;34.62
14383;BME280;7275;50.328;8.720;2022-08-19T09:22:35;99396.06;;;33.83;34.09
14383;BME280;7275;50.328;8.720;2022-08-19T09:25:05;99402.13;;;33.92;33.67
14383;BME280;7275;50.328;8.720;2022-08-19T09:27:36;99400.03;;;34.01;33.59
14383;BME280;7275;50.328;8.720;2022-08-19T09:30:11;99387.16;;;34.08;33.84
14383;BME280;7275;50.328;8.720;2022-08-19T09:32:41;99393.25;;;34.23;33.80
14383;BME280;7275;50.328;8.720;2022-08-19T09:35:10;99388.34;;;34.38;33.36
14383;BME280;7275;50.328;8.720;2022-08-19T09:37:38;99375.81;;;34.48;32.49
14383;BME280;7275;50.328;8.720;2022-08-19T09:40:07;99378.53;;;34.62;32.86
14383;BME280;7275;50.328;8.720;2022-08-19T09:42:38;99384.78;;;34.82;32.55
14383;BME280;7275;50.328;8.720;2022-08-19T09:45:18;99392.47;;;35.04;32.36
14383;BME280;7275;50.328;8.720;2022-08-19T09:47:47;99395.06;;;35.24;31.71
14383;BME280;7275;50.328;8.720;2022-08-19T09:50:15;99393.47;;;35.41;31.66
14383;BME280;7275;50.328;8.720;2022-08-19T09:52:44;99388.44;;;35.63;31.67
14383;BME280;7275;50.328;8.720;2022-08-19T09:55:22;99385.91;;;35.86;31.94
14383;BME280;7275;50.328;8.720;2022-08-19T09:57:59;99376.38;;;36.06;31.45
14383;BME280;7275;50.328;8.720;2022-08-19T10:00:27;99378.69;;;36.28;31.05
14383;BME280;7275;50.328;8.720;2022-08-19T10:02:56;99365.97;;;36.45;30.38
14383;BME280;7275;50.328;8.720;2022-08-19T10:05:24;99362.59;;;36.61;30.30
14383;BME280;7275;50.328;8.720;2022-08-19T10:08:14;99371.75;;;36.73;30.04
14383;BME280;7275;50.328;8.720;2022-08-19T10:10:42;99366.75;;;36.81;30.12
14383;BME280;7275;50.328;8.720;2022-08-19T10:13:15;99375.09;;;36.93;29.60
14383;BME280;7275;50.328;8.720;2022-08-19T10:15:43;99377.50;;;37.01;29.66
14383;BME280;7275;50.328;8.720;2022-08-19T10:18:15;99377.50;;;37.01;29.23
14383;BME280;7275;50.328;8.720;2022-08-19T10:20:45;99376.69;;;37.01;29.03
14383;BME280;7275;50.328;8.720;2022-08-19T10:23:19;99377.41;;;37.08;29.09
14383;BME280;7275;50.328;8.720;2022-08-19T10:25:47;99380.69;;;37.16;28.65
14383;BME280;7275;50.328;8.720;2022-08-19T10:28:16;99385.34;;;37.16;28.43
14383;BME280;7275;50.328;8.720;2022-08-19T10:30:45;99380.31;;;37.13;28.54
14383;BME280;7275;50.328;8.720;2022-08-19T10:33:13;99383.94;;;37.13;28.17
14383;BME280;7275;50.328;8.720;2022-08-19T10:36:02;99377.69;;;37.18;28.72
14383;BME280;7275;50.328;8.720;2022-08-19T10:38:30;99373.25;;;37.28;28.56
14383;BME280;7275;50.328;8.720;2022-08-19T10:41:06;99376.56;;;37.37;28.67
14383;BME280;7275;50.328;8.720;2022-08-19T10:43:35;99370.56;;;37.51;28.18
14383;BME280;7275;50.328;8.720;2022-08-19T10:46:04;99377.19;;;37.62;28.28
14383;BME280;7275;50.328;8.720;2022-08-19T10:48:39;99370.22;;;37.71;28.10
14383;BME280;7275;50.328;8.720;2022-08-19T10:51:08;99363.91;;;37.82;27.74
14383;BME280;7275;50.328;8.720;2022-08-19T10:53:54;99367.50;;;37.94;27.64
14383;BME280;7275;50.328;8.720;2022-08-19T10:56:22;99360.88;;;38.07;27.49
14383;BME280;7275;50.328;8.720;2022-08-19T10:59:23;99363.13;;;38.10;27.41
14383;BME280;7275;50.328;8.720;2022-08-19T11:02:01;99360.16;;;38.11;27.52
14383;BME280;7275;50.328;8.720;2022-08-19T11:04:29;99359.41;;;38.16;26.78
14383;BME280;7275;50.328;8.720;2022-08-19T11:06:58;99352.31;;;38.20;26.71
14383;BME280;7275;50.328;8.720;2022-08-19T11:09:26;99353.88;;;38.16;26.72
14383;BME280;7275;50.328;8.720;2022-08-19T11:12:00;99353.06;;;38.15;26.79
14383;BME280;7275;50.328;8.720;2022-08-19T11:14:32;99349.06;;;38.23;26.72
14383;BME280;7275;50.328;8.720;2022-08-19T11:17:01;99337.19;;;38.34;26.61
14383;BME280;7275;50.328;8.720;2022-08-19T11:19:29;99347.00;;;38.42;26.32
14383;BME280;7275;50.328;8.720;2022-08-19T11:21:57;99337.13;;;38.46;25.99
14383;BME280;7275;50.328;8.720;2022-08-19T11:24:30;99322.69;;;38.55;26.05
14383;BME280;7275;50.328;8.720;2022-08-19T11:27:02;99314.47;;;38.60;26.00
14383;BME280;7275;50.328;8.720;2022-08-19T11:29:32;99308.22;;;38.65;25.75
14383;BME280;7275;50.328;8.720;2022-08-19T11:32:03;99299.22;;;38.69;25.49
14383;BME280;7275;50.328;8.720;2022-08-19T11:34:31;99302.91;;;38.75;25.13
14383;BME280;7275;50.328;8.720;2022-08-19T11:36:59;99299.97;;;38.81;25.25
14383;BME280;7275;50.328;8.720;2022-08-19T11:39:29;99298.81;;;38.94;25.22
14383;BME280;7275;50.328;8.720;2022-08-19T11:41:58;99287.94;;;39.04;24.99
14383;BME280;7275;50.328;8.720;2022-08-19T11:44:26;99293.75;;;39.19;25.04
14383;BME280;7275;50.328;8.720;2022-08-19T11:46:55;99300.31;;;39.30;24.50
14383;BME280;7275;50.328;8.720;2022-08-19T11:49:34;99289.91;;;39.37;24.32
14383;BME280;7275;50.328;8.720;2022-08-19T11:52:02;99301.34;;;39.45;24.10
14383;BME280;7275;50.328;8.720;2022-08-19T11:54:30;99301.44;;;39.50;24.01
14383;BME280;7275;50.328;8.720;2022-08-19T11:56:58;99304.06;;;39.57;24.05
14383;BME280;7275;50.328;8.720;2022-08-19T11:59:27;99299.75;;;39.49;23.90
14383;BME280;7275;50.328;8.720;2022-08-19T12:01:56;99300.13;;;39.36;24.23
14383;BME280;7275;50.328;8.720;2022-08-19T12:04:25;99287.88;;;39.32;23.81
14383;BME280;7275;50.328;8.720;2022-08-19T12:06:53;99289.91;;;39.37;24.10
14383;BME280;7275;50.328;8.720;2022-08-19T12:09:21;99293.16;;;39.50;23.98
14383;BME280;7275;50.328;8.720;2022-08-19T12:11:48;99294.84;;;39.68;24.14
14383;BME280;7275;50.328;8.720;2022-08-19T12:14:17;99291.50;;;39.87;23.84
14383;BME280;7275;50.328;8.720;2022-08-19T12:16:46;99286.69;;;40.00;23.43
14383;BME280;7275;50.328;8.720;2022-08-19T12:19:19;99282.56;;;40.02;23.09
14383;BME280;7275;50.328;8.720;2022-08-19T12:21:48;99290.56;;;39.99;22.87
14383;BME280;7275;50.328;8.720;2022-08-19T12:24:17;99279.16;;;39.95;23.34
14383;BME280;7275;50.328;8.720;2022-08-19T12:26:49;99284.88;;;39.88;23.13
14383;BME280;7275;50.328;8.720;2022-08-19T12:29:18;99289.31;;;39.89;22.47
14383;BME280;7275;50.328;8.720;2022-08-19T12:31:49;99276.47;;;40.00;22.43
14383;BME280;7275;50.328;8.720;2022-08-19T12:34:18;99274.16;;;40.14;22.59
14383;BME280;7275;50.328;8.720;2022-08-19T12:36:47;99283.34;;;40.19;22.54
14383;BME280;7275;50.328;8.720;2022-08-19T12:39:15;99277.88;;;40.24;22.37
14383;BME280;7275;50.328;8.720;2022-08-19T12:41:43;99282.13;;;40.32;22.90
14383;BME280;7275;50.328;8.720;2022-08-19T12:44:20;99275.22;;;40.34;22.33
14383;BME280;7275;50.328;8.720;2022-08-19T12:46:55;99271.50;;;40.24;22.28
14383;BME280;7275;50.328;8.720;2022-08-19T12:49:24;99273.03;;;40.15;22.29
14383;BME280;7275;50.328;8.720;2022-08-19T12:52:12;99265.88;;;40.19;22.61
14383;BME280;7275;50.328;8.720;2022-08-19T12:54:48;99254.91;;;40.29;22.62
14383;BME280;7275;50.328;8.720;2022-08-19T12:57:20;99269.75;;;40.39;21.83
14383;BME280;7275;50.328;8.720;2022-08-19T12:59:59;99261.78;;;40.43;21.68
14383;BME280;7275;50.328;8.720;2022-08-19T13:02:30;99261.59;;;40.33;21.89
14383;BME280;7275;50.328;8.720;2022-08-19T13:05:08;99263.97;;;40.19;21.43
14383;BME280;7275;50.328;8.720;2022-08-19T13:07:38;99259.00;;;40.00;21.55
14383;BME280;7275;50.328;8.720;2022-08-19T13:10:08;99257.38;;;39.82;21.23
14383;BME280;7275;50.328;8.720;2022-08-19T13:12:38;99256.50;;;39.60;21.50
14383;BME280;7275;50.328;8.720;2022-08-19T13:15:08;99264.22;;;39.41;21.41
14383;BME280;7275;50.328;8.720;2022-08-19T13:17:37;99263.06;;;39.21;21.69
14383;BME280;7275;50.328;8.720;2022-08-19T13:20:09;99258.84;;;39.01;22.00
14383;BME280;7275;50.328;8.720;2022-08-19T13:22:37;99264.88;;;38.82;22.01
14383;BME280;7275;50.328;8.720;2022-08-19T13:25:07;99270.97;;;38.67;22.39
14383;BME280;7275;50.328;8.720;2022-08-19T13:27:35;99270.91;;;38.51;22.15
14383;BME280;7275;50.328;8.720;2022-08-19T13:30:05;99268.75;;;38.53;22.34